sensor_id;sensor_type;location;lat;lon;timestamp;temperature;humidity
18085;DHT22;9169;44.492;11.372;2022-11-03T00:00:07;19.60;54.00
18085;DHT22;9169;44.492;11.372;2022-11-03T00:02:35;19.50;53.80
18085;DHT22;9169;44.492;11.372;2022-11-03T00:05:02;19.50;53.50
18085;DHT22;9169;44.492;11.372;2022-11-03T00:07:49;19.50;53.40
18085;DHT22;9169;44.492;11.372;2022-11-03T00:10:16;19.60;53.30
18085;DHT22;9169;44.492;11.372;2022-11-03T00:12:43;19.60;53.20
18085;DHT22;9169;44.492;11.372;2022-11-03T00:15:11;19.60;53.00
18085;DHT22;9169;44.492;11.372;2022-11-03T00:17:38;19.60;52.90
18085;DHT22;9169;44.492;11.372;2022-11-03T00:20:05;19.60;52.80
18085;DHT22;9169;44.492;11.372;2022-11-03T00:22:32;19.60;52.80
18085;DHT22;9169;44.492;11.372;2022-11-03T00:24:59;19.60;53.50
18085;DHT22;9169;44.492;11.372;2022-11-03T00:27:26;19.60;53.90
18085;DHT22;9169;44.492;11.372;2022-11-03T00:29:53;19.50;54.20
18085;DHT22;9169;44.492;11.372;2022-11-03T00:32:21;19.50;54.40
18085;DHT22;9169;44.492;11.372;2022-11-03T00:34:48;19.50;54.00
18085;DHT22;9169;44.492;11.372;2022-11-03T00:37:15;19.50;53.80
18085;DHT22;9169;44.492;11.372;2022-11-03T00:39:41;19.50;53.60
18085;DHT22;9169;44.492;11.372;2022-11-03T00:42:08;19.50;53.60
18085;DHT22;9169;44.492;11.372;2022-11-03T00:44:35;19.50;53.50
18085;DHT22;9169;44.492;11.372;2022-11-03T00:47:02;19.50;53.50
18085;DHT22;9169;44.492;11.372;2022-11-03T00:49:30;19.50;53.40
18085;DHT22;9169;44.492;11.372;2022-11-03T00:51:57;19.50;53.90
18085;DHT22;9169;44.492;11.372;2022-11-03T00:54:23;19.50;54.00
18085;DHT22;9169;44.492;11.372;2022-11-03T00:56:50;19.50;54.20
18085;DHT22;9169;44.492;11.372;2022-11-03T00:59:17;19.50;54.00
18085;DHT22;9169;44.492;11.372;2022-11-03T01:01:44;19.50;53.90
18085;DHT22;9169;44.492;11.372;2022-11-03T01:04:11;19.50;54.20
18085;DHT22;9169;44.492;11.372;2022-11-03T01:06:57;19.50;54.30
18085;DHT22;9169;44.492;11.372;2022-11-03T01:09:25;19.50;54.10
18085;DHT22;9169;44.492;11.372;2022-11-03T01:11:55;19.50;54.30
18085;DHT22;9169;44.492;11.372;2022-11-03T01:14:22;19.50;54.60
18085;DHT22;9169;44.492;11.372;2022-11-03T01:16:49;19.50;54.20
18085;DHT22;9169;44.492;11.372;2022-11-03T01:19:16;19.50;54.30
18085;DHT22;9169;44.492;11.372;2022-11-03T01:21:43;19.50;54.40
18085;DHT22;9169;44.492;11.372;2022-11-03T01:24:11;19.50;54.10
18085;DHT22;9169;44.492;11.372;2022-11-03T01:26:38;19.50;54.00
18085;DHT22;9169;44.492;11.372;2022-11-03T01:29:04;19.50;54.70
18085;DHT22;9169;44.492;11.372;2022-11-03T01:31:31;19.50;54.60
18085;DHT22;9169;44.492;11.372;2022-11-03T01:33:58;19.50;54.50
18085;DHT22;9169;44.492;11.372;2022-11-03T01:36:25;19.40;54.60
18085;DHT22;9169;44.492;11.372;2022-11-03T01:38:52;19.40;54.70
18085;DHT22;9169;44.492;11.372;2022-11-03T01:41:21;19.40;54.70
18085;DHT22;9169;44.492;11.372;2022-11-03T01:43:49;19.40;54.70
18085;DHT22;9169;44.492;11.372;2022-11-03T01:46:17;19.40;54.90
18085;DHT22;9169;44.492;11.372;2022-11-03T01:48:45;19.30;55.10
18085;DHT22;9169;44.492;11.372;2022-11-03T01:51:13;19.30;54.90
18085;DHT22;9169;44.492;11.372;2022-11-03T01:53:42;19.30;55.20
18085;DHT22;9169;44.492;11.372;2022-11-03T01:56:10;19.30;55.40
18085;DHT22;9169;44.492;11.372;2022-11-03T01:58:39;19.20;55.50
18085;DHT22;9169;44.492;11.372;2022-11-03T02:01:07;19.20;55.40
18085;DHT22;9169;44.492;11.372;2022-11-03T02:03:34;19.20;55.30
18085;DHT22;9169;44.492;11.372;2022-11-03T02:06:03;19.20;55.00
18085;DHT22;9169;44.492;11.372;2022-11-03T02:08:32;19.20;55.40
18085;DHT22;9169;44.492;11.372;2022-11-03T02:10:59;19.20;55.10
18085;DHT22;9169;44.492;11.372;2022-11-03T02:13:48;19.20;55.20
18085;DHT22;9169;44.492;11.372;2022-11-03T02:16:14;19.20;55.10
18085;DHT22;9169;44.492;11.372;2022-11-03T02:18:41;19.30;54.90
18085;DHT22;9169;44.492;11.372;2022-11-03T02:21:11;19.30;54.90
18085;DHT22;9169;44.492;11.372;2022-11-03T02:23:43;19.30;54.70
18085;DHT22;9169;44.492;11.372;2022-11-03T02:26:13;19.30;54.50
18085;DHT22;9169;44.492;11.372;2022-11-03T02:28:41;19.30;54.60
18085;DHT22;9169;44.492;11.372;2022-11-03T02:31:09;19.30;54.70
18085;DHT22;9169;44.492;11.372;2022-11-03T02:33:39;19.30;54.60
18085;DHT22;9169;44.492;11.372;2022-11-03T02:36:10;19.30;55.00
18085;DHT22;9169;44.492;11.372;2022-11-03T02:38:40;19.30;54.40
18085;DHT22;9169;44.492;11.372;2022-11-03T02:41:08;19.30;54.60
18085;DHT22;9169;44.492;11.372;2022-11-03T02:43:36;19.40;54.40
18085;DHT22;9169;44.492;11.372;2022-11-03T02:46:04;19.40;54.20
18085;DHT22;9169;44.492;11.372;2022-11-03T02:48:31;19.30;54.50
18085;DHT22;9169;44.492;11.372;2022-11-03T02:50:58;19.40;54.50
18085;DHT22;9169;44.492;11.372;2022-11-03T02:53:24;19.30;54.30
18085;DHT22;9169;44.492;11.372;2022-11-03T02:55:54;19.30;54.50
18085;DHT22;9169;44.492;11.372;2022-11-03T02:58:25;19.30;54.20
18085;DHT22;9169;44.492;11.372;2022-11-03T03:00:54;19.30;54.20
18085;DHT22;9169;44.492;11.372;2022-11-03T03:03:24;19.30;54.10
18085;DHT22;9169;44.492;11.372;2022-11-03T03:05:52;19.30;54.10
18085;DHT22;9169;44.492;11.372;2022-11-03T03:08:21;19.30;54.00
18085;DHT22;9169;44.492;11.372;2022-11-03T03:10:49;19.30;54.00
18085;DHT22;9169;44.492;11.372;2022-11-03T03:13:16;19.40;54.00
18085;DHT22;9169;44.492;11.372;2022-11-03T03:15:45;19.40;54.00
18085;DHT22;9169;44.492;11.372;2022-11-03T03:18:19;19.40;54.00
18085;DHT22;9169;44.492;11.372;2022-11-03T03:20:49;19.40;54.10
18085;DHT22;9169;44.492;11.372;2022-11-03T03:23:17;19.40;54.20
18085;DHT22;9169;44.492;11.372;2022-11-03T03:25:46;19.30;54.20
18085;DHT22;9169;44.492;11.372;2022-11-03T03:28:14;19.30;54.10
18085;DHT22;9169;44.492;11.372;2022-11-03T03:30:42;19.30;54.60
18085;DHT22;9169;44.492;11.372;2022-11-03T03:33:10;19.30;54.50
18085;DHT22;9169;44.492;11.372;2022-11-03T03:35:40;19.30;54.20
18085;DHT22;9169;44.492;11.372;2022-11-03T03:38:09;19.30;54.30
18085;DHT22;9169;44.492;11.372;2022-11-03T03:40:39;19.30;54.30
18085;DHT22;9169;44.492;11.372;2022-11-03T03:43:07;19.30;54.30
18085;DHT22;9169;44.492;11.372;2022-11-03T03:45:35;19.30;54.70
18085;DHT22;9169;44.492;11.372;2022-11-03T03:48:03;19.30;54.60
18085;DHT22;9169;44.492;11.372;2022-11-03T03:50:31;19.30;54.60
18085;DHT22;9169;44.492;11.372;2022-11-03T03:53:01;19.30;54.90
18085;DHT22;9169;44.492;11.372;2022-11-03T03:55:31;19.30;54.60
18085;DHT22;9169;44.492;11.372;2022-11-03T03:57:59;19.30;55.00
18085;DHT22;9169;44.492;11.372;2022-11-03T04:00:26;19.30;54.90
18085;DHT22;9169;44.492;11.372;2022-11-03T04:02:55;19.30;54.70
18085;DHT22;9169;44.492;11.372;2022-11-03T04:05:21;19.30;54.60
18085;DHT22;9169;44.492;11.372;2022-11-03T04:07:48;19.30;54.50
18085;DHT22;9169;44.492;11.372;2022-11-03T04:10:18;19.30;54.40
18085;DHT22;9169;44.492;11.372;2022-11-03T04:12:45;19.30;54.50
18085;DHT22;9169;44.492;11.372;2022-11-03T04:15:29;19.30;54.40
18085;DHT22;9169;44.492;11.372;2022-11-03T04:18:13;19.30;54.40
18085;DHT22;9169;44.492;11.372;2022-11-03T04:20:58;19.30;54.30
18085;DHT22;9169;44.492;11.372;2022-11-03T04:23:42;19.30;54.30
18085;DHT22;9169;44.492;11.372;2022-11-03T04:26:11;19.30;54.50
18085;DHT22;9169;44.492;11.372;2022-11-03T04:28:38;19.30;54.40
18085;DHT22;9169;44.492;11.372;2022-11-03T04:31:08;19.30;54.50
18085;DHT22;9169;44.492;11.372;2022-11-03T04:33:36;19.30;54.70
18085;DHT22;9169;44.492;11.372;2022-11-03T04:36:04;19.30;54.50
18085;DHT22;9169;44.492;11.372;2022-11-03T04:38:35;19.30;55.00
18085;DHT22;9169;44.492;11.372;2022-11-03T04:41:05;19.30;54.60
18085;DHT22;9169;44.492;11.372;2022-11-03T04:43:34;19.30;54.70
18085;DHT22;9169;44.492;11.372;2022-11-03T04:46:01;19.30;54.60
18085;DHT22;9169;44.492;11.372;2022-11-03T04:48:28;19.30;54.60
18085;DHT22;9169;44.492;11.372;2022-11-03T04:50:56;19.30;54.70
18085;DHT22;9169;44.492;11.372;2022-11-03T04:53:24;19.20;54.60
18085;DHT22;9169;44.492;11.372;2022-11-03T04:55:53;19.20;54.60
18085;DHT22;9169;44.492;11.372;2022-11-03T04:58:20;19.20;54.80
18085;DHT22;9169;44.492;11.372;2022-11-03T05:00:50;19.20;54.90
18085;DHT22;9169;44.492;11.372;2022-11-03T05:03:19;19.20;54.70
18085;DHT22;9169;44.492;11.372;2022-11-03T05:05:46;19.20;54.90
18085;DHT22;9169;44.492;11.372;2022-11-03T05:08:13;19.20;54.70
18085;DHT22;9169;44.492;11.372;2022-11-03T05:10:41;19.20;54.60
18085;DHT22;9169;44.492;11.372;2022-11-03T05:13:09;19.20;54.60
18085;DHT22;9169;44.492;11.372;2022-11-03T05:15:41;19.20;54.50
18085;DHT22;9169;44.492;11.372;2022-11-03T05:18:13;19.20;54.60
18085;DHT22;9169;44.492;11.372;2022-11-03T05:20:42;19.20;54.90
18085;DHT22;9169;44.492;11.372;2022-11-03T05:23:09;19.20;54.80
18085;DHT22;9169;44.492;11.372;2022-11-03T05:25:37;19.20;54.90
18085;DHT22;9169;44.492;11.372;2022-11-03T05:28:08;19.20;55.30
18085;DHT22;9169;44.492;11.372;2022-11-03T05:30:39;19.20;55.40
18085;DHT22;9169;44.492;11.372;2022-11-03T05:33:12;19.20;55.00
18085;DHT22;9169;44.492;11.372;2022-11-03T05:35:41;19.10;55.00
18085;DHT22;9169;44.492;11.372;2022-11-03T05:38:09;19.10;55.00
18085;DHT22;9169;44.492;11.372;2022-11-03T05:40:37;19.10;55.10
18085;DHT22;9169;44.492;11.372;2022-11-03T05:43:06;19.10;55.40
18085;DHT22;9169;44.492;11.372;2022-11-03T05:45:34;19.00;55.60
18085;DHT22;9169;44.492;11.372;2022-11-03T05:48:01;19.00;55.50
18085;DHT22;9169;44.492;11.372;2022-11-03T05:50:32;18.90;55.40
18085;DHT22;9169;44.492;11.372;2022-11-03T05:53:02;18.90;55.20
18085;DHT22;9169;44.492;11.372;2022-11-03T05:55:30;19.00;55.30
18085;DHT22;9169;44.492;11.372;2022-11-03T05:57:58;19.00;55.10
18085;DHT22;9169;44.492;11.372;2022-11-03T06:00:28;19.00;55.20
18085;DHT22;9169;44.492;11.372;2022-11-03T06:02:55;19.10;55.30
18085;DHT22;9169;44.492;11.372;2022-11-03T06:05:23;19.10;55.20
18085;DHT22;9169;44.492;11.372;2022-11-03T06:07:52;19.10;55.20
18085;DHT22;9169;44.492;11.372;2022-11-03T06:10:20;19.10;55.10
18085;DHT22;9169;44.492;11.372;2022-11-03T06:12:49;19.10;55.00
18085;DHT22;9169;44.492;11.372;2022-11-03T06:15:21;19.10;55.10
18085;DHT22;9169;44.492;11.372;2022-11-03T06:17:50;19.10;55.30
18085;DHT22;9169;44.492;11.372;2022-11-03T06:20:17;19.10;55.20
18085;DHT22;9169;44.492;11.372;2022-11-03T06:22:46;19.10;55.10
18085;DHT22;9169;44.492;11.372;2022-11-03T06:25:21;19.10;55.00
18085;DHT22;9169;44.492;11.372;2022-11-03T06:27:49;19.10;55.00
18085;DHT22;9169;44.492;11.372;2022-11-03T06:30:19;19.20;55.00
18085;DHT22;9169;44.492;11.372;2022-11-03T06:32:46;19.20;55.10
18085;DHT22;9169;44.492;11.372;2022-11-03T06:35:13;19.20;55.00
18085;DHT22;9169;44.492;11.372;2022-11-03T06:37:40;19.20;54.90
18085;DHT22;9169;44.492;11.372;2022-11-03T06:40:31;19.20;55.00
18085;DHT22;9169;44.492;11.372;2022-11-03T06:42:58;19.20;55.00
18085;DHT22;9169;44.492;11.372;2022-11-03T06:45:25;19.30;55.10
18085;DHT22;9169;44.492;11.372;2022-11-03T06:47:52;19.30;55.10
18085;DHT22;9169;44.492;11.372;2022-11-03T06:50:20;19.30;55.60
18085;DHT22;9169;44.492;11.372;2022-11-03T06:52:47;19.30;55.40
18085;DHT22;9169;44.492;11.372;2022-11-03T06:55:20;19.30;55.30
18085;DHT22;9169;44.492;11.372;2022-11-03T06:57:47;19.30;55.30
18085;DHT22;9169;44.492;11.372;2022-11-03T07:00:15;19.30;55.30
18085;DHT22;9169;44.492;11.372;2022-11-03T07:02:49;19.30;55.50
18085;DHT22;9169;44.492;11.372;2022-11-03T07:05:19;19.30;55.40
18085;DHT22;9169;44.492;11.372;2022-11-03T07:07:47;19.30;55.80
18085;DHT22;9169;44.492;11.372;2022-11-03T07:10:14;19.30;55.60
18085;DHT22;9169;44.492;11.372;2022-11-03T07:12:42;19.30;55.80
18085;DHT22;9169;44.492;11.372;2022-11-03T07:15:15;19.30;56.00
18085;DHT22;9169;44.492;11.372;2022-11-03T07:17:45;19.30;56.10
18085;DHT22;9169;44.492;11.372;2022-11-03T07:20:13;19.30;55.90
18085;DHT22;9169;44.492;11.372;2022-11-03T07:22:41;19.30;55.80
18085;DHT22;9169;44.492;11.372;2022-11-03T07:25:08;19.30;55.90
18085;DHT22;9169;44.492;11.372;2022-11-03T07:27:39;19.30;55.80
18085;DHT22;9169;44.492;11.372;2022-11-03T07:30:13;19.30;55.70
18085;DHT22;9169;44.492;11.372;2022-11-03T07:32:41;19.40;55.90
18085;DHT22;9169;44.492;11.372;2022-11-03T07:35:14;19.40;55.80
18085;DHT22;9169;44.492;11.372;2022-11-03T07:37:45;19.50;55.80
18085;DHT22;9169;44.492;11.372;2022-11-03T07:40:13;19.50;55.70
18085;DHT22;9169;44.492;11.372;2022-11-03T07:42:42;19.60;55.70
18085;DHT22;9169;44.492;11.372;2022-11-03T07:45:21;19.60;55.90
18085;DHT22;9169;44.492;11.372;2022-11-03T07:47:56;19.60;55.80
18085;DHT22;9169;44.492;11.372;2022-11-03T07:50:23;19.60;56.40
18085;DHT22;9169;44.492;11.372;2022-11-03T07:52:50;19.70;55.90
18085;DHT22;9169;44.492;11.372;2022-11-03T07:55:17;19.70;55.90
18085;DHT22;9169;44.492;11.372;2022-11-03T07:57:43;19.70;55.80
18085;DHT22;9169;44.492;11.372;2022-11-03T08:00:13;19.70;56.10
18085;DHT22;9169;44.492;11.372;2022-11-03T08:02:47;19.70;56.20
18085;DHT22;9169;44.492;11.372;2022-11-03T08:05:14;19.70;56.20
18085;DHT22;9169;44.492;11.372;2022-11-03T08:07:41;19.70;56.20
18085;DHT22;9169;44.492;11.372;2022-11-03T08:10:08;19.80;56.10
18085;DHT22;9169;44.492;11.372;2022-11-03T08:12:35;19.80;56.00
18085;DHT22;9169;44.492;11.372;2022-11-03T08:15:02;19.90;56.20
18085;DHT22;9169;44.492;11.372;2022-11-03T08:17:30;19.90;56.10
18085;DHT22;9169;44.492;11.372;2022-11-03T08:19:57;20.00;56.00
18085;DHT22;9169;44.492;11.372;2022-11-03T08:22:24;20.00;56.10
18085;DHT22;9169;44.492;11.372;2022-11-03T08:24:51;20.10;56.20
18085;DHT22;9169;44.492;11.372;2022-11-03T08:27:17;20.10;56.10
18085;DHT22;9169;44.492;11.372;2022-11-03T08:29:44;20.10;56.10
18085;DHT22;9169;44.492;11.372;2022-11-03T08:32:11;20.10;56.00
18085;DHT22;9169;44.492;11.372;2022-11-03T08:34:40;20.10;56.00
18085;DHT22;9169;44.492;11.372;2022-11-03T08:37:06;20.10;55.90
18085;DHT22;9169;44.492;11.372;2022-11-03T08:39:33;20.10;55.90
18085;DHT22;9169;44.492;11.372;2022-11-03T08:42:00;20.20;56.10
18085;DHT22;9169;44.492;11.372;2022-11-03T08:44:27;20.30;56.10
18085;DHT22;9169;44.492;11.372;2022-11-03T08:46:54;20.30;56.00
18085;DHT22;9169;44.492;11.372;2022-11-03T08:49:21;20.40;56.00
18085;DHT22;9169;44.492;11.372;2022-11-03T08:51:49;20.40;56.30
18085;DHT22;9169;44.492;11.372;2022-11-03T08:54:16;20.40;56.20
18085;DHT22;9169;44.492;11.372;2022-11-03T08:56:43;20.50;56.20
18085;DHT22;9169;44.492;11.372;2022-11-03T08:59:13;20.40;56.20
18085;DHT22;9169;44.492;11.372;2022-11-03T09:01:42;20.40;56.10
18085;DHT22;9169;44.492;11.372;2022-11-03T09:04:09;20.30;55.90
18085;DHT22;9169;44.492;11.372;2022-11-03T09:06:35;20.30;55.90
18085;DHT22;9169;44.492;11.372;2022-11-03T09:09:04;20.30;56.10
18085;DHT22;9169;44.492;11.372;2022-11-03T09:11:30;20.30;56.00
18085;DHT22;9169;44.492;11.372;2022-11-03T09:13:57;20.30;55.90
18085;DHT22;9169;44.492;11.372;2022-11-03T09:16:24;20.40;56.00
18085;DHT22;9169;44.492;11.372;2022-11-03T09:18:51;20.40;56.00
18085;DHT22;9169;44.492;11.372;2022-11-03T09:21:17;20.40;56.10
18085;DHT22;9169;44.492;11.372;2022-11-03T09:23:44;20.50;56.30
18085;DHT22;9169;44.492;11.372;2022-11-03T09:26:12;20.50;56.20
18085;DHT22;9169;44.492;11.372;2022-11-03T09:28:39;20.50;56.10
18085;DHT22;9169;44.492;11.372;2022-11-03T09:31:06;20.50;56.30
18085;DHT22;9169;44.492;11.372;2022-11-03T09:33:33;20.60;56.40
18085;DHT22;9169;44.492;11.372;2022-11-03T09:36:00;20.60;56.40
18085;DHT22;9169;44.492;11.372;2022-11-03T09:38:27;20.70;56.40
18085;DHT22;9169;44.492;11.372;2022-11-03T09:40:54;20.70;56.20
18085;DHT22;9169;44.492;11.372;2022-11-03T09:43:22;20.80;56.30
18085;DHT22;9169;44.492;11.372;2022-11-03T09:45:49;20.80;56.20
18085;DHT22;9169;44.492;11.372;2022-11-03T09:48:15;20.90;56.40
18085;DHT22;9169;44.492;11.372;2022-11-03T09:50:42;20.80;56.60
18085;DHT22;9169;44.492;11.372;2022-11-03T09:53:09;20.80;56.90
18085;DHT22;9169;44.492;11.372;2022-11-03T09:55:37;20.70;57.00
18085;DHT22;9169;44.492;11.372;2022-11-03T09:58:08;20.70;56.70
18085;DHT22;9169;44.492;11.372;2022-11-03T10:00:37;20.70;56.60
18085;DHT22;9169;44.492;11.372;2022-11-03T10:03:04;20.80;56.60
18085;DHT22;9169;44.492;11.372;2022-11-03T10:05:30;20.80;56.50
18085;DHT22;9169;44.492;11.372;2022-11-03T10:07:58;20.90;56.40
18085;DHT22;9169;44.492;11.372;2022-11-03T10:10:26;20.90;56.60
18085;DHT22;9169;44.492;11.372;2022-11-03T10:12:53;21.00;56.30
18085;DHT22;9169;44.492;11.372;2022-11-03T10:15:20;21.00;56.20
18085;DHT22;9169;44.492;11.372;2022-11-03T10:17:49;21.00;56.10
18085;DHT22;9169;44.492;11.372;2022-11-03T10:20:18;21.10;56.10
18085;DHT22;9169;44.492;11.372;2022-11-03T10:22:45;21.10;56.10
18085;DHT22;9169;44.492;11.372;2022-11-03T10:25:24;21.10;56.10
18085;DHT22;9169;44.492;11.372;2022-11-03T10:27:50;21.10;56.00
18085;DHT22;9169;44.492;11.372;2022-11-03T10:30:17;21.10;55.90
18085;DHT22;9169;44.492;11.372;2022-11-03T10:32:44;21.10;55.80
18085;DHT22;9169;44.492;11.372;2022-11-03T10:37:53;21.00;55.90
18085;DHT22;9169;44.492;11.372;2022-11-03T10:40:32;21.00;55.90
18085;DHT22;9169;44.492;11.372;2022-11-03T10:42:59;21.00;55.90
18085;DHT22;9169;44.492;11.372;2022-11-03T10:45:26;21.00;55.80
18085;DHT22;9169;44.492;11.372;2022-11-03T10:47:58;21.00;55.90
18085;DHT22;9169;44.492;11.372;2022-11-03T10:50:25;21.10;56.00
18085;DHT22;9169;44.492;11.372;2022-11-03T10:52:54;21.10;56.10
18085;DHT22;9169;44.492;11.372;2022-11-03T10:55:21;21.20;56.10
18085;DHT22;9169;44.492;11.372;2022-11-03T10:57:49;21.30;56.10
18085;DHT22;9169;44.492;11.372;2022-11-03T11:00:16;21.30;56.00
18085;DHT22;9169;44.492;11.372;2022-11-03T11:02:43;21.40;56.00
18085;DHT22;9169;44.492;11.372;2022-11-03T11:05:12;21.30;55.80
18085;DHT22;9169;44.492;11.372;2022-11-03T11:07:40;21.40;55.70
18085;DHT22;9169;44.492;11.372;2022-11-03T11:10:10;21.40;55.80
18085;DHT22;9169;44.492;11.372;2022-11-03T11:12:38;21.30;55.70
18085;DHT22;9169;44.492;11.372;2022-11-03T11:17:46;21.40;56.00
18085;DHT22;9169;44.492;11.372;2022-11-03T11:20:30;21.30;55.90
18085;DHT22;9169;44.492;11.372;2022-11-03T11:26:13;21.20;55.70
18085;DHT22;9169;44.492;11.372;2022-11-03T11:28:41;21.20;55.80
18085;DHT22;9169;44.492;11.372;2022-11-03T11:31:27;21.10;55.70
18085;DHT22;9169;44.492;11.372;2022-11-03T11:36:42;21.10;55.60
18085;DHT22;9169;44.492;11.372;2022-11-03T11:39:10;21.10;55.70
18085;DHT22;9169;44.492;11.372;2022-11-03T11:47:19;21.00;55.60
18085;DHT22;9169;44.492;11.372;2022-11-03T11:49:46;21.00;56.00
18085;DHT22;9169;44.492;11.372;2022-11-03T11:52:13;21.10;55.70
18085;DHT22;9169;44.492;11.372;2022-11-03T11:54:40;21.00;55.50
18085;DHT22;9169;44.492;11.372;2022-11-03T11:57:11;21.10;55.60
18085;DHT22;9169;44.492;11.372;2022-11-03T11:59:43;21.10;55.50
18085;DHT22;9169;44.492;11.372;2022-11-03T12:02:14;21.10;55.60
18085;DHT22;9169;44.492;11.372;2022-11-03T12:04:46;21.10;55.50
18085;DHT22;9169;44.492;11.372;2022-11-03T12:07:13;21.00;55.40
18085;DHT22;9169;44.492;11.372;2022-11-03T12:09:40;21.10;56.00
18085;DHT22;9169;44.492;11.372;2022-11-03T12:12:07;21.10;55.40
18085;DHT22;9169;44.492;11.372;2022-11-03T12:14:34;21.10;55.60
18085;DHT22;9169;44.492;11.372;2022-11-03T12:19:49;21.10;55.60
18085;DHT22;9169;44.492;11.372;2022-11-03T12:24:58;21.20;55.90
18085;DHT22;9169;44.492;11.372;2022-11-03T12:27:41;21.20;55.70
18085;DHT22;9169;44.492;11.372;2022-11-03T12:30:12;21.20;55.70
18085;DHT22;9169;44.492;11.372;2022-11-03T12:32:39;21.20;55.70
18085;DHT22;9169;44.492;11.372;2022-11-03T12:35:08;21.20;55.50
18085;DHT22;9169;44.492;11.372;2022-11-03T12:37:35;21.20;55.40
18085;DHT22;9169;44.492;11.372;2022-11-03T12:40:02;21.20;55.40
18085;DHT22;9169;44.492;11.372;2022-11-03T12:42:29;21.20;55.40
18085;DHT22;9169;44.492;11.372;2022-11-03T12:44:56;21.20;55.40
18085;DHT22;9169;44.492;11.372;2022-11-03T12:47:22;21.20;55.60
18085;DHT22;9169;44.492;11.372;2022-11-03T12:49:49;21.20;55.40
18085;DHT22;9169;44.492;11.372;2022-11-03T12:52:17;21.20;55.30
18085;DHT22;9169;44.492;11.372;2022-11-03T12:54:44;21.30;55.40
18085;DHT22;9169;44.492;11.372;2022-11-03T12:57:11;21.20;55.30
18085;DHT22;9169;44.492;11.372;2022-11-03T12:59:38;21.20;55.30
18085;DHT22;9169;44.492;11.372;2022-11-03T13:02:05;21.20;55.40
18085;DHT22;9169;44.492;11.372;2022-11-03T13:04:31;21.20;55.60
18085;DHT22;9169;44.492;11.372;2022-11-03T13:06:58;21.20;55.60
18085;DHT22;9169;44.492;11.372;2022-11-03T13:09:26;21.10;55.40
18085;DHT22;9169;44.492;11.372;2022-11-03T13:11:53;21.10;55.60
18085;DHT22;9169;44.492;11.372;2022-11-03T13:14:37;21.10;55.50
18085;DHT22;9169;44.492;11.372;2022-11-03T13:17:04;21.10;55.50
18085;DHT22;9169;44.492;11.372;2022-11-03T13:19:31;21.10;55.50
18085;DHT22;9169;44.492;11.372;2022-11-03T13:21:58;21.10;55.40
18085;DHT22;9169;44.492;11.372;2022-11-03T13:24:26;21.10;55.40
18085;DHT22;9169;44.492;11.372;2022-11-03T13:26:53;21.20;55.40
18085;DHT22;9169;44.492;11.372;2022-11-03T13:29:20;21.10;55.40
18085;DHT22;9169;44.492;11.372;2022-11-03T13:31:47;21.10;55.40
18085;DHT22;9169;44.492;11.372;2022-11-03T13:34:14;21.10;55.30
18085;DHT22;9169;44.492;11.372;2022-11-03T13:36:40;21.20;55.40
18085;DHT22;9169;44.492;11.372;2022-11-03T13:39:07;21.20;55.80
18085;DHT22;9169;44.492;11.372;2022-11-03T13:41:35;21.20;55.70
18085;DHT22;9169;44.492;11.372;2022-11-03T13:44:02;21.30;55.90
18085;DHT22;9169;44.492;11.372;2022-11-03T13:46:29;21.30;55.80
18085;DHT22;9169;44.492;11.372;2022-11-03T13:48:55;21.40;55.70
18085;DHT22;9169;44.492;11.372;2022-11-03T13:51:22;21.30;55.50
18085;DHT22;9169;44.492;11.372;2022-11-03T13:53:49;21.30;55.50
18085;DHT22;9169;44.492;11.372;2022-11-03T13:56:15;21.30;55.50
18085;DHT22;9169;44.492;11.372;2022-11-03T13:58:44;21.30;55.40
18085;DHT22;9169;44.492;11.372;2022-11-03T14:01:10;21.30;55.40
18085;DHT22;9169;44.492;11.372;2022-11-03T14:03:37;21.30;55.40
18085;DHT22;9169;44.492;11.372;2022-11-03T14:06:04;21.30;55.40
18085;DHT22;9169;44.492;11.372;2022-11-03T14:08:31;21.30;55.40
18085;DHT22;9169;44.492;11.372;2022-11-03T14:10:58;21.30;55.40
18085;DHT22;9169;44.492;11.372;2022-11-03T14:13:46;21.30;55.40
18085;DHT22;9169;44.492;11.372;2022-11-03T14:16:12;21.30;55.40
18085;DHT22;9169;44.492;11.372;2022-11-03T14:18:38;21.30;55.50
18085;DHT22;9169;44.492;11.372;2022-11-03T14:21:05;21.30;55.50
18085;DHT22;9169;44.492;11.372;2022-11-03T14:23:32;21.30;55.40
18085;DHT22;9169;44.492;11.372;2022-11-03T14:25:59;21.30;55.40
18085;DHT22;9169;44.492;11.372;2022-11-03T14:28:25;21.30;55.30
18085;DHT22;9169;44.492;11.372;2022-11-03T14:30:54;21.30;55.40
18085;DHT22;9169;44.492;11.372;2022-11-03T14:33:24;21.30;55.40
18085;DHT22;9169;44.492;11.372;2022-11-03T14:35:50;21.30;55.40
18085;DHT22;9169;44.492;11.372;2022-11-03T14:38:17;21.20;55.70
18085;DHT22;9169;44.492;11.372;2022-11-03T14:40:44;21.20;55.10
18085;DHT22;9169;44.492;11.372;2022-11-03T14:43:28;21.20;55.10
18085;DHT22;9169;44.492;11.372;2022-11-03T14:45:56;21.20;55.20
18085;DHT22;9169;44.492;11.372;2022-11-03T14:48:23;21.20;55.20
18085;DHT22;9169;44.492;11.372;2022-11-03T14:50:49;21.30;55.20
18085;DHT22;9169;44.492;11.372;2022-11-03T14:53:17;21.20;55.20
18085;DHT22;9169;44.492;11.372;2022-11-03T14:55:44;21.20;55.30
18085;DHT22;9169;44.492;11.372;2022-11-03T14:58:11;21.20;55.30
18085;DHT22;9169;44.492;11.372;2022-11-03T15:00:38;21.20;55.30
18085;DHT22;9169;44.492;11.372;2022-11-03T15:03:06;21.20;55.30
18085;DHT22;9169;44.492;11.372;2022-11-03T15:05:33;21.20;55.20
18085;DHT22;9169;44.492;11.372;2022-11-03T15:08:11;21.20;55.20
18085;DHT22;9169;44.492;11.372;2022-11-03T15:10:39;21.20;55.30
18085;DHT22;9169;44.492;11.372;2022-11-03T15:13:06;21.10;55.30
18085;DHT22;9169;44.492;11.372;2022-11-03T15:15:32;21.10;55.30
18085;DHT22;9169;44.492;11.372;2022-11-03T15:18:00;21.10;55.30
18085;DHT22;9169;44.492;11.372;2022-11-03T15:20:29;21.10;55.30
18085;DHT22;9169;44.492;11.372;2022-11-03T15:22:55;21.10;55.30
18085;DHT22;9169;44.492;11.372;2022-11-03T15:25:22;21.10;55.30
18085;DHT22;9169;44.492;11.372;2022-11-03T15:27:49;21.00;55.20
18085;DHT22;9169;44.492;11.372;2022-11-03T15:30:17;21.10;55.30
18085;DHT22;9169;44.492;11.372;2022-11-03T15:32:44;21.00;55.10
18085;DHT22;9169;44.492;11.372;2022-11-03T15:35:10;21.00;55.20
18085;DHT22;9169;44.492;11.372;2022-11-03T15:37:39;21.10;55.20
18085;DHT22;9169;44.492;11.372;2022-11-03T15:40:09;21.00;55.20
18085;DHT22;9169;44.492;11.372;2022-11-03T15:42:36;21.00;55.20
18085;DHT22;9169;44.492;11.372;2022-11-03T15:45:02;21.00;55.20
18085;DHT22;9169;44.492;11.372;2022-11-03T15:47:29;21.00;55.20
18085;DHT22;9169;44.492;11.372;2022-11-03T15:49:57;21.00;55.20
18085;DHT22;9169;44.492;11.372;2022-11-03T15:52:24;21.00;55.30
18085;DHT22;9169;44.492;11.372;2022-11-03T15:54:52;21.00;55.30
18085;DHT22;9169;44.492;11.372;2022-11-03T15:57:19;21.00;55.30
18085;DHT22;9169;44.492;11.372;2022-11-03T15:59:46;20.90;55.10